sensor_id;sensor_type;location;lat;lon;timestamp;P1;durP1;ratioP1;P2;durP2;ratioP2
54452;SDS011;40363;52.270;10.546;2023-04-24T00:00:09;1.35;;;1.10;;
54452;SDS011;40363;52.270;10.546;2023-04-24T00:02:37;1.65;;;1.13;;
54452;SDS011;40363;52.270;10.546;2023-04-24T00:05:05;3.40;;;1.08;;
54452;SDS011;40363;52.270;10.546;2023-04-24T00:07:32;1.42;;;1.00;;
54452;SDS011;40363;52.270;10.546;2023-04-24T00:09:58;2.50;;;0.95;;
54452;SDS011;40363;52.270;10.546;2023-04-24T00:12:27;1.38;;;1.10;;
54452;SDS011;40363;52.270;10.546;2023-04-24T00:14:54;2.80;;;1.20;;
54452;SDS011;40363;52.270;10.546;2023-04-24T00:17:20;0.85;;;0.82;;
54452;SDS011;40363;52.270;10.546;2023-04-24T00:19:47;0.70;;;0.70;;
54452;SDS011;40363;52.270;10.546;2023-04-24T00:22:16;1.88;;;1.20;;
54452;SDS011;40363;52.270;10.546;2023-04-24T00:24:43;1.42;;;0.80;;
54452;SDS011;40363;52.270;10.546;2023-04-24T00:27:10;1.50;;;1.02;;
54452;SDS011;40363;52.270;10.546;2023-04-24T00:29:38;2.10;;;0.85;;
54452;SDS011;40363;52.270;10.546;2023-04-24T00:32:05;1.40;;;0.98;;
54452;SDS011;40363;52.270;10.546;2023-04-24T00:34:31;1.67;;;0.90;;
54452;SDS011;40363;52.270;10.546;2023-04-24T00:36:58;1.25;;;0.95;;
54452;SDS011;40363;52.270;10.546;2023-04-24T00:39:25;1.20;;;0.80;;
54452;SDS011;40363;52.270;10.546;2023-04-24T00:41:51;1.67;;;0.93;;
54452;SDS011;40363;52.270;10.546;2023-04-24T00:44:20;1.88;;;1.20;;
54452;SDS011;40363;52.270;10.546;2023-04-24T00:46:48;0.95;;;0.60;;
54452;SDS011;40363;52.270;10.546;2023-04-24T00:49:19;3.22;;;0.80;;
54452;SDS011;40363;52.270;10.546;2023-04-24T00:51:46;1.50;;;0.93;;
54452;SDS011;40363;52.270;10.546;2023-04-24T00:54:14;1.95;;;0.88;;
54452;SDS011;40363;52.270;10.546;2023-04-24T00:56:41;1.42;;;0.85;;
54452;SDS011;40363;52.270;10.546;2023-04-24T00:59:10;0.93;;;0.70;;
54452;SDS011;40363;52.270;10.546;2023-04-24T01:01:37;1.75;;;1.00;;
54452;SDS011;40363;52.270;10.546;2023-04-24T01:04:08;2.13;;;1.27;;
54452;SDS011;40363;52.270;10.546;2023-04-24T01:06:36;6.90;;;0.95;;
54452;SDS011;40363;52.270;10.546;2023-04-24T01:09:05;1.95;;;0.80;;
54452;SDS011;40363;52.270;10.546;2023-04-24T01:11:33;1.65;;;0.90;;
54452;SDS011;40363;52.270;10.546;2023-04-24T01:14:00;1.35;;;1.05;;
54452;SDS011;40363;52.270;10.546;2023-04-24T01:16:27;1.27;;;0.90;;
54452;SDS011;40363;52.270;10.546;2023-04-24T01:18:54;1.13;;;0.70;;
54452;SDS011;40363;52.270;10.546;2023-04-24T01:21:22;1.45;;;0.70;;
54452;SDS011;40363;52.270;10.546;2023-04-24T01:23:54;1.80;;;0.70;;
54452;SDS011;40363;52.270;10.546;2023-04-24T01:26:21;1.17;;;0.63;;
54452;SDS011;40363;52.270;10.546;2023-04-24T01:28:50;2.45;;;0.98;;
54452;SDS011;40363;52.270;10.546;2023-04-24T01:31:17;2.33;;;0.80;;
54452;SDS011;40363;52.270;10.546;2023-04-24T01:33:44;2.17;;;1.20;;
54452;SDS011;40363;52.270;10.546;2023-04-24T01:36:11;1.88;;;1.02;;
54452;SDS011;40363;52.270;10.546;2023-04-24T01:38:39;1.02;;;0.80;;
54452;SDS011;40363;52.270;10.546;2023-04-24T01:41:07;2.45;;;1.20;;
54452;SDS011;40363;52.270;10.546;2023-04-24T01:43:34;0.90;;;0.80;;
54452;SDS011;40363;52.270;10.546;2023-04-24T01:46:01;4.57;;;1.20;;
54452;SDS011;40363;52.270;10.546;2023-04-24T01:48:28;0.82;;;0.80;;
54452;SDS011;40363;52.270;10.546;2023-04-24T01:50:56;1.33;;;0.80;;
54452;SDS011;40363;52.270;10.546;2023-04-24T01:53:23;1.42;;;0.70;;
54452;SDS011;40363;52.270;10.546;2023-04-24T01:55:49;2.15;;;1.00;;
54452;SDS011;40363;52.270;10.546;2023-04-24T01:58:17;1.50;;;0.63;;
54452;SDS011;40363;52.270;10.546;2023-04-24T02:00:44;1.08;;;0.70;;
54452;SDS011;40363;52.270;10.546;2023-04-24T02:03:11;0.90;;;0.70;;
54452;SDS011;40363;52.270;10.546;2023-04-24T02:05:37;2.67;;;0.82;;
54452;SDS011;40363;52.270;10.546;2023-04-24T02:08:04;1.45;;;0.90;;
54452;SDS011;40363;52.270;10.546;2023-04-24T02:10:31;1.25;;;1.10;;
54452;SDS011;40363;52.270;10.546;2023-04-24T02:12:57;1.00;;;0.90;;
54452;SDS011;40363;52.270;10.546;2023-04-24T02:15:26;0.82;;;0.80;;
54452;SDS011;40363;52.270;10.546;2023-04-24T02:17:52;1.35;;;1.10;;
54452;SDS011;40363;52.270;10.546;2023-04-24T02:20:19;3.05;;;1.13;;
54452;SDS011;40363;52.270;10.546;2023-04-24T02:22:46;1.23;;;0.90;;
54452;SDS011;40363;52.270;10.546;2023-04-24T02:25:12;2.85;;;0.90;;
54452;SDS011;40363;52.270;10.546;2023-04-24T02:27:39;1.42;;;0.73;;
54452;SDS011;40363;52.270;10.546;2023-04-24T02:30:06;2.47;;;0.90;;
54452;SDS011;40363;52.270;10.546;2023-04-24T02:32:35;4.00;;;1.15;;
54452;SDS011;40363;52.270;10.546;2023-04-24T02:35:01;1.80;;;1.33;;
54452;SDS011;40363;52.270;10.546;2023-04-24T02:37:28;2.92;;;1.00;;
54452;SDS011;40363;52.270;10.546;2023-04-24T02:39:55;2.58;;;1.20;;
54452;SDS011;40363;52.270;10.546;2023-04-24T02:42:21;4.25;;;1.05;;
54452;SDS011;40363;52.270;10.546;2023-04-24T02:44:48;3.95;;;1.20;;
54452;SDS011;40363;52.270;10.546;2023-04-24T02:49:45;1.20;;;0.90;;
54452;SDS011;40363;52.270;10.546;2023-04-24T02:52:12;1.95;;;1.13;;
54452;SDS011;40363;52.270;10.546;2023-04-24T02:54:39;2.50;;;1.20;;
54452;SDS011;40363;52.270;10.546;2023-04-24T02:57:06;2.55;;;0.98;;
54452;SDS011;40363;52.270;10.546;2023-04-24T02:59:32;2.83;;;1.10;;
54452;SDS011;40363;52.270;10.546;2023-04-24T03:01:59;1.85;;;1.40;;
54452;SDS011;40363;52.270;10.546;2023-04-24T03:04:26;4.75;;;1.90;;
54452;SDS011;40363;52.270;10.546;2023-04-24T03:06:54;3.85;;;1.67;;
54452;SDS011;40363;52.270;10.546;2023-04-24T03:09:21;4.03;;;1.80;;
54452;SDS011;40363;52.270;10.546;2023-04-24T03:11:48;4.80;;;1.95;;
54452;SDS011;40363;52.270;10.546;2023-04-24T03:14:15;3.95;;;1.13;;
54452;SDS011;40363;52.270;10.546;2023-04-24T03:16:41;4.15;;;1.60;;
54452;SDS011;40363;52.270;10.546;2023-04-24T03:19:08;3.38;;;1.55;;
54452;SDS011;40363;52.270;10.546;2023-04-24T03:21:38;2.00;;;1.08;;
54452;SDS011;40363;52.270;10.546;2023-04-24T03:24:07;3.28;;;1.55;;
54452;SDS011;40363;52.270;10.546;2023-04-24T03:26:33;2.58;;;1.25;;
54452;SDS011;40363;52.270;10.546;2023-04-24T03:29:00;4.43;;;1.13;;
54452;SDS011;40363;52.270;10.546;2023-04-24T03:31:27;3.45;;;1.35;;
54452;SDS011;40363;52.270;10.546;2023-04-24T03:33:53;27.35;;;2.17;;
54452;SDS011;40363;52.270;10.546;2023-04-24T03:36:20;1.92;;;1.08;;
54452;SDS011;40363;52.270;10.546;2023-04-24T03:38:47;3.17;;;1.23;;
54452;SDS011;40363;52.270;10.546;2023-04-24T03:41:15;2.13;;;0.93;;
54452;SDS011;40363;52.270;10.546;2023-04-24T03:43:42;2.25;;;1.08;;
54452;SDS011;40363;52.270;10.546;2023-04-24T03:46:08;1.15;;;0.90;;
54452;SDS011;40363;52.270;10.546;2023-04-24T03:48:35;1.23;;;1.02;;
54452;SDS011;40363;52.270;10.546;2023-04-24T03:51:02;1.73;;;0.90;;
54452;SDS011;40363;52.270;10.546;2023-04-24T03:53:28;2.15;;;0.90;;
54452;SDS011;40363;52.270;10.546;2023-04-24T03:55:55;1.58;;;1.08;;
54452;SDS011;40363;52.270;10.546;2023-04-24T03:58:23;3.47;;;1.00;;
54452;SDS011;40363;52.270;10.546;2023-04-24T04:00:49;2.72;;;0.75;;
54452;SDS011;40363;52.270;10.546;2023-04-24T04:03:16;1.15;;;0.73;;
54452;SDS011;40363;52.270;10.546;2023-04-24T04:05:42;1.00;;;0.75;;
54452;SDS011;40363;52.270;10.546;2023-04-24T04:08:09;2.03;;;0.77;;
54452;SDS011;40363;52.270;10.546;2023-04-24T04:10:36;3.17;;;0.88;;
54452;SDS011;40363;52.270;10.546;2023-04-24T04:13:02;0.90;;;0.80;;
54452;SDS011;40363;52.270;10.546;2023-04-24T04:15:30;2.38;;;0.98;;
54452;SDS011;40363;52.270;10.546;2023-04-24T04:17:57;3.95;;;1.00;;
54452;SDS011;40363;52.270;10.546;2023-04-24T04:20:24;2.15;;;1.10;;
54452;SDS011;40363;52.270;10.546;2023-04-24T04:22:50;2.45;;;1.30;;
54452;SDS011;40363;52.270;10.546;2023-04-24T04:25:17;3.08;;;1.02;;
54452;SDS011;40363;52.270;10.546;2023-04-24T04:27:44;2.78;;;1.13;;
54452;SDS011;40363;52.270;10.546;2023-04-24T04:30:12;2.25;;;1.00;;
54452;SDS011;40363;52.270;10.546;2023-04-24T04:32:41;4.32;;;1.05;;
54452;SDS011;40363;52.270;10.546;2023-04-24T04:35:07;2.38;;;1.02;;
54452;SDS011;40363;52.270;10.546;2023-04-24T04:37:34;2.53;;;0.82;;
54452;SDS011;40363;52.270;10.546;2023-04-24T04:40:01;3.25;;;1.10;;
54452;SDS011;40363;52.270;10.546;2023-04-24T04:42:31;4.03;;;1.63;;
54452;SDS011;40363;52.270;10.546;2023-04-24T04:44:59;2.20;;;1.20;;
54452;SDS011;40363;52.270;10.546;2023-04-24T04:47:26;2.83;;;1.25;;
54452;SDS011;40363;52.270;10.546;2023-04-24T04:49:55;1.98;;;0.90;;
54452;SDS011;40363;52.270;10.546;2023-04-24T04:52:21;3.13;;;1.23;;
54452;SDS011;40363;52.270;10.546;2023-04-24T04:54:50;2.42;;;1.20;;
54452;SDS011;40363;52.270;10.546;2023-04-24T04:57:17;3.80;;;1.17;;
54452;SDS011;40363;52.270;10.546;2023-04-24T04:59:43;2.45;;;1.30;;
54452;SDS011;40363;52.270;10.546;2023-04-24T05:02:10;2.83;;;1.40;;
54452;SDS011;40363;52.270;10.546;2023-04-24T05:04:36;3.15;;;1.63;;
54452;SDS011;40363;52.270;10.546;2023-04-24T05:07:04;3.38;;;1.05;;
54452;SDS011;40363;52.270;10.546;2023-04-24T05:09:31;2.38;;;1.40;;
54452;SDS011;40363;52.270;10.546;2023-04-24T05:11:57;3.33;;;1.52;;
54452;SDS011;40363;52.270;10.546;2023-04-24T05:14:24;6.32;;;1.42;;
54452;SDS011;40363;52.270;10.546;2023-04-24T05:16:51;1.48;;;1.00;;
54452;SDS011;40363;52.270;10.546;2023-04-24T05:19:17;1.65;;;0.90;;
54452;SDS011;40363;52.270;10.546;2023-04-24T05:21:44;1.60;;;0.60;;
54452;SDS011;40363;52.270;10.546;2023-04-24T05:24:12;5.35;;;0.80;;
54452;SDS011;40363;52.270;10.546;2023-04-24T05:26:38;0.85;;;0.60;;
54452;SDS011;40363;52.270;10.546;2023-04-24T05:29:05;0.75;;;0.55;;
54452;SDS011;40363;52.270;10.546;2023-04-24T05:31:32;0.82;;;0.77;;
54452;SDS011;40363;52.270;10.546;2023-04-24T05:33:58;1.33;;;0.70;;
54452;SDS011;40363;52.270;10.546;2023-04-24T05:36:25;0.60;;;0.47;;
54452;SDS011;40363;52.270;10.546;2023-04-24T05:38:52;1.25;;;0.90;;
54452;SDS011;40363;52.270;10.546;2023-04-24T05:41:20;2.92;;;1.58;;
54452;SDS011;40363;52.270;10.546;2023-04-24T05:43:47;1.42;;;0.80;;
54452;SDS011;40363;52.270;10.546;2023-04-24T05:46:14;1.73;;;0.75;;
54452;SDS011;40363;52.270;10.546;2023-04-24T05:48:40;2.80;;;0.70;;
54452;SDS011;40363;52.270;10.546;2023-04-24T05:51:09;1.23;;;0.70;;
54452;SDS011;40363;52.270;10.546;2023-04-24T05:53:35;3.25;;;0.95;;
54452;SDS011;40363;52.270;10.546;2023-04-24T05:56:02;1.88;;;0.70;;
54452;SDS011;40363;52.270;10.546;2023-04-24T05:58:30;1.92;;;0.75;;
54452;SDS011;40363;52.270;10.546;2023-04-24T06:00:57;2.35;;;0.90;;
54452;SDS011;40363;52.270;10.546;2023-04-24T06:03:26;2.65;;;0.90;;
54452;SDS011;40363;52.270;10.546;2023-04-24T06:05:52;2.15;;;0.80;;
54452;SDS011;40363;52.270;10.546;2023-04-24T06:08:19;1.05;;;0.60;;
54452;SDS011;40363;52.270;10.546;2023-04-24T06:10:45;1.42;;;0.70;;
54452;SDS011;40363;52.270;10.546;2023-04-24T06:13:12;1.48;;;0.80;;
54452;SDS011;40363;52.270;10.546;2023-04-24T06:15:40;1.35;;;0.50;;
54452;SDS011;40363;52.270;10.546;2023-04-24T06:18:07;2.72;;;1.15;;
54452;SDS011;40363;52.270;10.546;2023-04-24T06:20:35;1.90;;;0.77;;
54452;SDS011;40363;52.270;10.546;2023-04-24T06:23:01;1.42;;;0.60;;
54452;SDS011;40363;52.270;10.546;2023-04-24T06:25:28;1.20;;;0.75;;
54452;SDS011;40363;52.270;10.546;2023-04-24T06:27:55;1.48;;;0.90;;
54452;SDS011;40363;52.270;10.546;2023-04-24T06:30:22;2.95;;;1.10;;
54452;SDS011;40363;52.270;10.546;2023-04-24T06:32:50;1.42;;;1.00;;
54452;SDS011;40363;52.270;10.546;2023-04-24T06:35:17;5.78;;;1.48;;
54452;SDS011;40363;52.270;10.546;2023-04-24T06:37:43;4.85;;;1.73;;
54452;SDS011;40363;52.270;10.546;2023-04-24T06:40:10;2.05;;;1.10;;
54452;SDS011;40363;52.270;10.546;2023-04-24T06:42:36;2.10;;;0.90;;
54452;SDS011;40363;52.270;10.546;2023-04-24T06:45:03;1.63;;;1.05;;
54452;SDS011;40363;52.270;10.546;2023-04-24T06:47:31;1.85;;;1.15;;
54452;SDS011;40363;52.270;10.546;2023-04-24T06:49:59;1.30;;;0.90;;
54452;SDS011;40363;52.270;10.546;2023-04-24T06:52:25;1.42;;;1.10;;
54452;SDS011;40363;52.270;10.546;2023-04-24T06:54:52;3.30;;;1.15;;
54452;SDS011;40363;52.270;10.546;2023-04-24T06:57:18;4.28;;;1.55;;
54452;SDS011;40363;52.270;10.546;2023-04-24T06:59:46;2.63;;;1.15;;
54452;SDS011;40363;52.270;10.546;2023-04-24T07:02:12;2.50;;;1.23;;
54452;SDS011;40363;52.270;10.546;2023-04-24T07:04:39;1.45;;;1.10;;
54452;SDS011;40363;52.270;10.546;2023-04-24T07:07:08;3.53;;;1.35;;
54452;SDS011;40363;52.270;10.546;2023-04-24T07:09:38;5.05;;;1.60;;
54452;SDS011;40363;52.270;10.546;2023-04-24T07:12:07;4.68;;;1.75;;
54452;SDS011;40363;52.270;10.546;2023-04-24T07:14:35;2.17;;;1.40;;
54452;SDS011;40363;52.270;10.546;2023-04-24T07:17:02;3.60;;;1.38;;
54452;SDS011;40363;52.270;10.546;2023-04-24T07:19:28;6.43;;;1.60;;
54452;SDS011;40363;52.270;10.546;2023-04-24T07:21:55;5.40;;;2.38;;
54452;SDS011;40363;52.270;10.546;2023-04-24T07:24:24;3.97;;;1.45;;
54452;SDS011;40363;52.270;10.546;2023-04-24T07:26:51;1.83;;;1.00;;
54452;SDS011;40363;52.270;10.546;2023-04-24T07:29:18;2.80;;;1.30;;
54452;SDS011;40363;52.270;10.546;2023-04-24T07:31:46;1.67;;;0.77;;
54452;SDS011;40363;52.270;10.546;2023-04-24T07:34:12;1.65;;;1.00;;
54452;SDS011;40363;52.270;10.546;2023-04-24T07:36:39;1.08;;;0.70;;
54452;SDS011;40363;52.270;10.546;2023-04-24T07:39:07;1.05;;;0.82;;
54452;SDS011;40363;52.270;10.546;2023-04-24T07:41:35;2.00;;;0.90;;
54452;SDS011;40363;52.270;10.546;2023-04-24T07:44:02;1.35;;;0.80;;
54452;SDS011;40363;52.270;10.546;2023-04-24T07:46:29;0.98;;;0.93;;
54452;SDS011;40363;52.270;10.546;2023-04-24T07:48:56;2.70;;;1.08;;
54452;SDS011;40363;52.270;10.546;2023-04-24T07:51:24;1.15;;;0.90;;
54452;SDS011;40363;52.270;10.546;2023-04-24T07:53:52;1.70;;;1.10;;
54452;SDS011;40363;52.270;10.546;2023-04-24T07:56:19;1.40;;;1.30;;
54452;SDS011;40363;52.270;10.546;2023-04-24T07:58:47;1.83;;;1.23;;
54452;SDS011;40363;52.270;10.546;2023-04-24T08:01:14;1.73;;;1.00;;
54452;SDS011;40363;52.270;10.546;2023-04-24T08:03:40;1.88;;;1.17;;
54452;SDS011;40363;52.270;10.546;2023-04-24T08:06:07;2.72;;;1.13;;
54452;SDS011;40363;52.270;10.546;2023-04-24T08:08:33;2.83;;;1.35;;
54452;SDS011;40363;52.270;10.546;2023-04-24T08:11:00;2.78;;;1.20;;
54452;SDS011;40363;52.270;10.546;2023-04-24T08:13:26;2.35;;;1.30;;
54452;SDS011;40363;52.270;10.546;2023-04-24T08:15:54;3.90;;;1.50;;
54452;SDS011;40363;52.270;10.546;2023-04-24T08:18:22;2.00;;;1.38;;
54452;SDS011;40363;52.270;10.546;2023-04-24T08:20:49;2.88;;;1.40;;
54452;SDS011;40363;52.270;10.546;2023-04-24T08:23:16;2.80;;;1.33;;
54452;SDS011;40363;52.270;10.546;2023-04-24T08:25:42;1.27;;;0.90;;
54452;SDS011;40363;52.270;10.546;2023-04-24T08:28:09;2.08;;;1.20;;
54452;SDS011;40363;52.270;10.546;2023-04-24T08:30:36;2.47;;;1.15;;
54452;SDS011;40363;52.270;10.546;2023-04-24T08:33:04;1.85;;;1.10;;
54452;SDS011;40363;52.270;10.546;2023-04-24T08:35:32;1.55;;;1.20;;
54452;SDS011;40363;52.270;10.546;2023-04-24T08:37:58;3.53;;;1.73;;
54452;SDS011;40363;52.270;10.546;2023-04-24T08:40:27;2.08;;;1.60;;
54452;SDS011;40363;52.270;10.546;2023-04-24T08:42:55;3.55;;;1.80;;
54452;SDS011;40363;52.270;10.546;2023-04-24T08:45:22;1.50;;;1.40;;
54452;SDS011;40363;52.270;10.546;2023-04-24T08:50:26;1.70;;;1.55;;
54452;SDS011;40363;52.270;10.546;2023-04-24T08:52:53;5.72;;;1.15;;
54452;SDS011;40363;52.270;10.546;2023-04-24T08:55:20;1.48;;;1.20;;
54452;SDS011;40363;52.270;10.546;2023-04-24T08:57:50;2.30;;;1.25;;
54452;SDS011;40363;52.270;10.546;2023-04-24T09:00:18;1.58;;;1.15;;
54452;SDS011;40363;52.270;10.546;2023-04-24T09:02:46;3.03;;;1.80;;
54452;SDS011;40363;52.270;10.546;2023-04-24T09:05:15;4.50;;;2.10;;
54452;SDS011;40363;52.270;10.546;2023-04-24T09:07:44;2.90;;;1.85;;
54452;SDS011;40363;52.270;10.546;2023-04-24T09:10:13;2.33;;;1.65;;
54452;SDS011;40363;52.270;10.546;2023-04-24T09:12:40;2.00;;;1.75;;
54452;SDS011;40363;52.270;10.546;2023-04-24T09:15:07;2.40;;;1.80;;
54452;SDS011;40363;52.270;10.546;2023-04-24T09:17:34;2.63;;;1.67;;
54452;SDS011;40363;52.270;10.546;2023-04-24T09:20:01;2.85;;;1.60;;
54452;SDS011;40363;52.270;10.546;2023-04-24T09:22:28;2.15;;;1.75;;
54452;SDS011;40363;52.270;10.546;2023-04-24T09:25:04;3.35;;;1.75;;
54452;SDS011;40363;52.270;10.546;2023-04-24T09:27:32;5.40;;;2.00;;
54452;SDS011;40363;52.270;10.546;2023-04-24T09:29:59;6.13;;;2.10;;
54452;SDS011;40363;52.270;10.546;2023-04-24T09:32:26;2.97;;;1.80;;
54452;SDS011;40363;52.270;10.546;2023-04-24T09:35:04;3.20;;;1.77;;
54452;SDS011;40363;52.270;10.546;2023-04-24T09:37:35;2.17;;;1.75;;
54452;SDS011;40363;52.270;10.546;2023-04-24T09:40:15;2.30;;;1.90;;
54452;SDS011;40363;52.270;10.546;2023-04-24T09:42:46;3.25;;;2.00;;
54452;SDS011;40363;52.270;10.546;2023-04-24T09:45:17;3.10;;;1.75;;
54452;SDS011;40363;52.270;10.546;2023-04-24T09:47:44;2.88;;;1.85;;
54452;SDS011;40363;52.270;10.546;2023-04-24T09:50:12;3.20;;;1.85;;
54452;SDS011;40363;52.270;10.546;2023-04-24T09:52:40;3.95;;;1.95;;
54452;SDS011;40363;52.270;10.546;2023-04-24T09:55:13;2.95;;;2.30;;
54452;SDS011;40363;52.270;10.546;2023-04-24T09:57:49;2.63;;;1.75;;
54452;SDS011;40363;52.270;10.546;2023-04-24T10:00:18;2.03;;;1.77;;
54452;SDS011;40363;52.270;10.546;2023-04-24T10:02:49;3.15;;;1.80;;
54452;SDS011;40363;52.270;10.546;2023-04-24T10:05:17;3.67;;;1.70;;
54452;SDS011;40363;52.270;10.546;2023-04-24T10:07:44;3.13;;;1.40;;
54452;SDS011;40363;52.270;10.546;2023-04-24T10:10:11;2.10;;;1.50;;
54452;SDS011;40363;52.270;10.546;2023-04-24T10:12:39;3.33;;;1.65;;
54452;SDS011;40363;52.270;10.546;2023-04-24T10:15:07;2.90;;;1.70;;
54452;SDS011;40363;52.270;10.546;2023-04-24T10:17:37;5.82;;;2.13;;
54452;SDS011;40363;52.270;10.546;2023-04-24T10:20:05;3.92;;;2.13;;
54452;SDS011;40363;52.270;10.546;2023-04-24T10:22:33;2.05;;;1.60;;
54452;SDS011;40363;52.270;10.546;2023-04-24T10:25:00;3.53;;;2.15;;
54452;SDS011;40363;52.270;10.546;2023-04-24T10:27:29;3.25;;;1.73;;
54452;SDS011;40363;52.270;10.546;2023-04-24T10:29:59;2.47;;;1.48;;
54452;SDS011;40363;52.270;10.546;2023-04-24T10:32:27;3.90;;;1.52;;
54452;SDS011;40363;52.270;10.546;2023-04-24T10:34:55;6.50;;;2.28;;
54452;SDS011;40363;52.270;10.546;2023-04-24T10:37:21;2.55;;;1.73;;
54452;SDS011;40363;52.270;10.546;2023-04-24T10:39:49;4.68;;;1.98;;
54452;SDS011;40363;52.270;10.546;2023-04-24T10:42:19;2.75;;;2.30;;
54452;SDS011;40363;52.270;10.546;2023-04-24T10:44:47;2.40;;;1.70;;
54452;SDS011;40363;52.270;10.546;2023-04-24T10:47:15;2.50;;;2.00;;
54452;SDS011;40363;52.270;10.546;2023-04-24T10:49:42;4.75;;;1.80;;
54452;SDS011;40363;52.270;10.546;2023-04-24T10:52:08;2.60;;;1.88;;
54452;SDS011;40363;52.270;10.546;2023-04-24T10:54:40;2.08;;;1.17;;
54452;SDS011;40363;52.270;10.546;2023-04-24T10:57:26;2.85;;;2.05;;
54452;SDS011;40363;52.270;10.546;2023-04-24T11:00:10;2.08;;;1.50;;
54452;SDS011;40363;52.270;10.546;2023-04-24T11:02:42;3.85;;;1.45;;
54452;SDS011;40363;52.270;10.546;2023-04-24T11:05:14;2.55;;;1.63;;
54452;SDS011;40363;52.270;10.546;2023-04-24T11:10:39;2.50;;;1.25;;
54452;SDS011;40363;52.270;10.546;2023-04-24T11:13:06;2.25;;;1.40;;
54452;SDS011;40363;52.270;10.546;2023-04-24T11:15:34;2.20;;;1.27;;
54452;SDS011;40363;52.270;10.546;2023-04-24T11:18:02;1.95;;;1.15;;
54452;SDS011;40363;52.270;10.546;2023-04-24T11:20:29;1.70;;;1.10;;
54452;SDS011;40363;52.270;10.546;2023-04-24T11:22:58;2.90;;;1.30;;
54452;SDS011;40363;52.270;10.546;2023-04-24T11:25:31;5.35;;;1.80;;
54452;SDS011;40363;52.270;10.546;2023-04-24T11:28:02;3.03;;;1.00;;
54452;SDS011;40363;52.270;10.546;2023-04-24T11:30:31;1.65;;;1.17;;
54452;SDS011;40363;52.270;10.546;2023-04-24T11:33:03;1.42;;;1.10;;
54452;SDS011;40363;52.270;10.546;2023-04-24T11:35:30;2.60;;;1.20;;
54452;SDS011;40363;52.270;10.546;2023-04-24T11:38:02;2.42;;;1.30;;
54452;SDS011;40363;52.270;10.546;2023-04-24T11:40:30;1.92;;;1.05;;
54452;SDS011;40363;52.270;10.546;2023-04-24T11:42:59;1.45;;;1.02;;
54452;SDS011;40363;52.270;10.546;2023-04-24T11:45:27;1.67;;;1.02;;
54452;SDS011;40363;52.270;10.546;2023-04-24T11:47:56;1.33;;;1.00;;
54452;SDS011;40363;52.270;10.546;2023-04-24T11:50:25;2.03;;;1.00;;
54452;SDS011;40363;52.270;10.546;2023-04-24T11:52:54;1.27;;;1.00;;
54452;SDS011;40363;52.270;10.546;2023-04-24T11:55:25;2.63;;;1.50;;
54452;SDS011;40363;52.270;10.546;2023-04-24T11:57:54;1.17;;;0.80;;
54452;SDS011;40363;52.270;10.546;2023-04-24T12:00:23;3.13;;;1.10;;
54452;SDS011;40363;52.270;10.546;2023-04-24T12:02:51;1.95;;;1.05;;
54452;SDS011;40363;52.270;10.546;2023-04-24T12:05:20;1.73;;;1.25;;
54452;SDS011;40363;52.270;10.546;2023-04-24T12:07:49;1.42;;;1.00;;
54452;SDS011;40363;52.270;10.546;2023-04-24T12:10:19;2.05;;;1.70;;
54452;SDS011;40363;52.270;10.546;2023-04-24T12:12:46;2.30;;;1.58;;
54452;SDS011;40363;52.270;10.546;2023-04-24T12:15:15;2.17;;;1.10;;
54452;SDS011;40363;52.270;10.546;2023-04-24T12:17:42;2.65;;;1.25;;
54452;SDS011;40363;52.270;10.546;2023-04-24T12:20:09;2.53;;;1.20;;
54452;SDS011;40363;52.270;10.546;2023-04-24T12:22:44;2.53;;;1.33;;
54452;SDS011;40363;52.270;10.546;2023-04-24T12:25:13;2.03;;;1.25;;
54452;SDS011;40363;52.270;10.546;2023-04-24T12:27:41;1.65;;;1.40;;
54452;SDS011;40363;52.270;10.546;2023-04-24T12:30:10;1.73;;;1.13;;
54452;SDS011;40363;52.270;10.546;2023-04-24T12:32:40;3.47;;;1.50;;
54452;SDS011;40363;52.270;10.546;2023-04-24T12:35:08;1.98;;;1.40;;
54452;SDS011;40363;52.270;10.546;2023-04-24T12:37:35;2.50;;;1.15;;
54452;SDS011;40363;52.270;10.546;2023-04-24T12:40:03;3.85;;;1.60;;
54452;SDS011;40363;52.270;10.546;2023-04-24T12:42:33;2.42;;;1.40;;
54452;SDS011;40363;52.270;10.546;2023-04-24T12:45:03;5.63;;;1.50;;
54452;SDS011;40363;52.270;10.546;2023-04-24T12:47:31;1.42;;;1.20;;
54452;SDS011;40363;52.270;10.546;2023-04-24T12:49:58;2.50;;;1.17;;
54452;SDS011;40363;52.270;10.546;2023-04-24T12:52:25;2.15;;;1.00;;
54452;SDS011;40363;52.270;10.546;2023-04-24T12:54:54;1.80;;;1.08;;
54452;SDS011;40363;52.270;10.546;2023-04-24T12:57:22;1.77;;;1.08;;
54452;SDS011;40363;52.270;10.546;2023-04-24T12:59:52;1.10;;;1.00;;
54452;SDS011;40363;52.270;10.546;2023-04-24T13:02:19;1.33;;;0.95;;
54452;SDS011;40363;52.270;10.546;2023-04-24T13:04:47;2.63;;;0.52;;
54452;SDS011;40363;52.270;10.546;2023-04-24T13:07:15;1.10;;;1.00;;
54452;SDS011;40363;52.270;10.546;2023-04-24T13:09:42;1.80;;;0.82;;
54452;SDS011;40363;52.270;10.546;2023-04-24T13:12:10;0.47;;;0.40;;
54452;SDS011;40363;52.270;10.546;2023-04-24T13:14:37;0.28;;;0.20;;
54452;SDS011;40363;52.270;10.546;2023-04-24T13:17:05;0.32;;;0.32;;
54452;SDS011;40363;52.270;10.546;2023-04-24T13:19:35;0.50;;;0.40;;
54452;SDS011;40363;52.270;10.546;2023-04-24T13:22:02;0.40;;;0.40;;
54452;SDS011;40363;52.270;10.546;2023-04-24T13:24:31;2.83;;;0.65;;
54452;SDS011;40363;52.270;10.546;2023-04-24T13:26:58;0.98;;;0.47;;
54452;SDS011;40363;52.270;10.546;2023-04-24T13:29:26;0.50;;;0.50;;
54452;SDS011;40363;52.270;10.546;2023-04-24T13:31:53;1.15;;;0.80;;
54452;SDS011;40363;52.270;10.546;2023-04-24T13:34:22;0.68;;;0.60;;
54452;SDS011;40363;52.270;10.546;2023-04-24T13:36:49;3.35;;;0.82;;
54452;SDS011;40363;52.270;10.546;2023-04-24T13:39:16;1.50;;;0.63;;
54452;SDS011;40363;52.270;10.546;2023-04-24T13:41:43;0.60;;;0.45;;
54452;SDS011;40363;52.270;10.546;2023-04-24T13:44:10;0.60;;;0.60;;
54452;SDS011;40363;52.270;10.546;2023-04-24T13:46:36;1.48;;;0.60;;
54452;SDS011;40363;52.270;10.546;2023-04-24T13:49:03;0.77;;;0.63;;
54452;SDS011;40363;52.270;10.546;2023-04-24T13:51:32;1.23;;;1.00;;
54452;SDS011;40363;52.270;10.546;2023-04-24T13:53:59;0.90;;;0.77;;
54452;SDS011;40363;52.270;10.546;2023-04-24T13:56:26;0.90;;;0.50;;
54452;SDS011;40363;52.270;10.546;2023-04-24T13:58:52;1.35;;;0.80;;
54452;SDS011;40363;52.270;10.546;2023-04-24T14:01:20;1.00;;;0.80;;
54452;SDS011;40363;52.270;10.546;2023-04-24T14:03:49;1.45;;;0.80;;
54452;SDS011;40363;52.270;10.546;2023-04-24T14:06:17;1.77;;;1.38;;
54452;SDS011;40363;52.270;10.546;2023-04-24T14:08:45;1.33;;;0.85;;
54452;SDS011;40363;52.270;10.546;2023-04-24T14:11:11;1.77;;;1.10;;
54452;SDS011;40363;52.270;10.546;2023-04-24T14:13:39;2.03;;;1.20;;
54452;SDS011;40363;52.270;10.546;2023-04-24T14:16:07;1.77;;;1.13;;
54452;SDS011;40363;52.270;10.546;2023-04-24T14:18:34;2.42;;;0.98;;
54452;SDS011;40363;52.270;10.546;2023-04-24T14:21:01;1.80;;;1.05;;
54452;SDS011;40363;52.270;10.546;2023-04-24T14:23:27;2.58;;;0.80;;
54452;SDS011;40363;52.270;10.546;2023-04-24T14:25:56;1.10;;;0.82;;
54452;SDS011;40363;52.270;10.546;2023-04-24T14:28:22;1.25;;;0.85;;
54452;SDS011;40363;52.270;10.546;2023-04-24T14:30:49;0.47;;;0.47;;
54452;SDS011;40363;52.270;10.546;2023-04-24T14:33:16;1.13;;;0.70;;
54452;SDS011;40363;52.270;10.546;2023-04-24T14:35:44;1.83;;;0.73;;
54452;SDS011;40363;52.270;10.546;2023-04-24T14:38:12;2.75;;;0.90;;
54452;SDS011;40363;52.270;10.546;2023-04-24T14:40:39;2.33;;;0.75;;
54452;SDS011;40363;52.270;10.546;2023-04-24T14:43:07;1.35;;;0.80;;